Time;durP1;ratioP1;P1;durP2;ratioP2;P2;SDS_P1;SDS_P2;PMS_P1;PMS_P2;Temp;Humidity;BMP_temperature;BMP_pressure;BME280_temperature;BME280_humidity;BME280_pressure;Samples;Min_cycle;Max_cycle;Signal;HPM_P1;HPM_P2
2023/04/01 00:01:25;;;;;;;9.57;7.82;;;9.70;99.90;;;;;;5013313;28;20050;-48
2023/04/01 00:03:51;;;;;;;8.75;7.95;;;9.70;99.90;;;;;;5015463;28;20348;-44
2023/04/01 00:06:18;;;;;;;9.50;8.50;;;9.70;99.90;;;;;;5034478;28;20049;-54
2023/04/01 00:08:44;;;;;;;8.23;7.43;;;9.70;99.90;;;;;;5022833;28;20084;-50
2023/04/01 00:11:10;;;;;;;9.02;7.65;;;9.70;99.90;;;;;;5035354;28;20053;-54
2023/04/01 00:13:36;;;;;;;9.35;7.85;;;9.80;99.90;;;;;;5034895;28;20116;-54
2023/04/01 00:16:02;;;;;;;9.85;8.85;;;9.70;99.90;;;;;;5003784;28;20044;-42
2023/04/01 00:18:28;;;;;;;9.50;8.50;;;9.70;99.90;;;;;;5034981;28;20120;-46
2023/04/01 00:20:54;;;;;;;9.27;8.35;;;9.70;99.90;;;;;;5021650;28;20056;-53
2023/04/01 00:23:20;;;;;;;8.75;7.85;;;9.80;99.90;;;;;;5034211;28;20410;-44
2023/04/01 00:25:47;;;;;;;9.43;7.72;;;9.70;99.90;;;;;;5022550;28;20068;-50
2023/04/01 00:28:16;;;;;;;8.65;7.75;;;9.80;99.90;;;;;;5022010;28;20122;-48
2023/04/01 00:30:42;;;;;;;9.82;7.90;;;9.70;99.90;;;;;;5035094;28;20096;-48
2023/04/01 00:33:08;;;;;;;10.32;8.07;;;9.80;99.90;;;;;;5022286;28;20057;-38
2023/04/01 00:35:34;;;;;;;8.25;7.45;;;9.70;99.90;;;;;;5026726;28;20103;-44
2023/04/01 00:38:00;;;;;;;9.93;7.20;;;9.80;99.90;;;;;;5028620;28;20049;-43
2023/04/01 00:40:37;;;;;;;8.95;7.60;;;9.70;99.90;;;;;;5034761;28;20497;-46
2023/04/01 00:43:09;;;;;;;7.85;7.00;;;9.70;99.90;;;;;;4999921;28;20072;-44
2023/04/01 00:45:38;;;;;;;9.25;7.30;;;9.70;99.90;;;;;;4991239;28;20045;-48
2023/04/01 00:48:08;;;;;;;9.05;7.53;;;9.70;99.90;;;;;;5018940;28;20080;-51
2023/04/01 00:50:36;;;;;;;7.95;7.00;;;9.70;99.90;;;;;;5045534;28;20893;-47
2023/04/01 00:53:02;;;;;;;6.88;6.15;;;9.70;99.90;;;;;;5037450;28;20053;-46
2023/04/01 00:55:31;;;;;;;8.55;6.68;;;9.70;99.90;;;;;;5024897;28;20084;-38
2023/04/01 00:57:59;;;;;;;7.95;7.15;;;9.70;99.90;;;;;;5031876;28;20132;-45
2023/04/01 01:00:26;;;;;;;7.97;7.18;;;9.70;99.90;;;;;;5016851;28;20103;-51
2023/04/01 01:02:52;;;;;;;6.57;5.90;;;9.60;99.90;;;;;;5015757;28;20416;-48
2023/04/01 01:05:29;;;;;;;8.32;6.45;;;9.60;99.90;;;;;;5025629;28;20045;-47
2023/04/01 01:08:15;;;;;;;8.80;6.82;;;9.60;99.90;;;;;;5033495;28;20049;-49
2023/04/01 01:10:47;;;;;;;8.73;6.78;;;9.50;99.90;;;;;;5020989;28;20049;-45
2023/04/01 01:13:22;;;;;;;8.93;7.22;;;9.50;99.90;;;;;;5024374;28;20127;-46
2023/04/01 01:16:00;;;;;;;9.73;7.75;;;9.50;99.90;;;;;;5029260;28;20063;-42
2023/04/01 01:18:33;;;;;;;9.70;6.93;;;9.50;99.90;;;;;;5021836;28;20057;-52
2023/04/01 01:21:28;;;;;;;8.70;6.97;;;9.50;99.90;;;;;;5022684;28;20122;-49
2023/04/01 01:24:12;;;;;;;9.48;7.63;;;9.50;99.90;;;;;;5034849;28;20037;-44
2023/04/01 01:26:44;;;;;;;8.70;7.22;;;9.50;99.90;;;;;;5034428;28;20553;-42
2023/04/01 01:29:42;;;;;;;9.65;7.80;;;9.50;99.90;;;;;;5034598;28;20059;-55
2023/04/01 01:32:27;;;;;;;9.43;7.60;;;9.50;99.90;;;;;;4971354;28;20058;-47
2023/04/01 01:35:24;;;;;;;10.30;7.32;;;9.50;99.90;;;;;;4971882;28;20050;-47
2023/04/01 01:37:59;;;;;;;9.13;6.93;;;9.40;99.90;;;;;;4971452;28;20149;-48
2023/04/01 01:40:27;;;;;;;10.23;7.63;;;9.40;99.90;;;;;;4971890;28;20088;-49
2023/04/01 01:42:57;;;;;;;8.35;6.90;;;9.50;99.90;;;;;;4971767;28;20146;-53
2023/04/01 01:45:25;;;;;;;9.23;6.82;;;9.50;99.90;;;;;;4971818;28;20573;-46
2023/04/01 01:47:52;;;;;;;9.30;7.20;;;9.40;99.90;;;;;;4971159;28;20580;-53
2023/04/01 01:50:19;;;;;;;8.25;6.97;;;9.40;99.90;;;;;;4971586;28;20058;-49
2023/04/01 01:52:45;;;;;;;8.55;7.15;;;9.50;99.90;;;;;;4958811;28;20066;-42
2023/04/01 01:55:44;;;;;;;9.60;7.55;;;9.40;99.90;;;;;;4971307;28;20164;-47
2023/04/01 01:58:32;;;;;;;9.18;7.07;;;9.40;99.90;;;;;;4878892;29;20127;-52
2023/04/01 02:01:05;;;;;;;10.00;6.95;;;9.40;99.90;;;;;;4893428;29;20091;-46
2023/04/01 02:03:35;;;;;;;8.90;7.22;;;9.40;99.90;;;;;;4894743;29;20063;-50
2023/04/01 02:06:06;;;;;;;11.98;7.75;;;9.40;99.90;;;;;;4894291;29;20123;-48
2023/04/01 02:08:42;;;;;;;9.13;7.15;;;9.40;99.90;;;;;;4911760;28;20063;-45
2023/04/01 02:11:13;;;;;;;8.88;7.38;;;9.50;99.90;;;;;;4940337;28;20051;-42
2023/04/01 02:13:51;;;;;;;9.48;7.05;;;9.50;99.90;;;;;;4937735;28;20474;-49
2023/04/01 02:16:23;;;;;;;9.52;7.68;;;9.50;99.90;;;;;;4955808;28;20051;-46
2023/04/01 02:18:53;;;;;;;9.40;7.30;;;9.50;99.90;;;;;;4952856;28;20413;-53
2023/04/01 02:21:21;;;;;;;8.77;6.38;;;9.50;99.90;;;;;;4920267;29;20062;-49
2023/04/01 02:23:48;;;;;;;8.07;6.47;;;9.50;99.90;;;;;;4949763;28;20058;-54
2023/04/01 02:26:15;;;;;;;8.20;5.80;;;9.40;99.90;;;;;;4946633;28;20113;-51
2023/04/01 02:28:42;;;;;;;7.15;6.10;;;9.40;99.90;;;;;;4955445;28;20062;-53
2023/04/01 02:31:10;;;;;;;7.13;5.63;;;9.40;99.90;;;;;;4956121;28;20050;-51
2023/04/01 02:33:38;;;;;;;8.02;4.93;;;9.30;99.90;;;;;;4980958;28;20061;-49
2023/04/01 02:36:04;;;;;;;4.68;3.85;;;9.40;99.90;;;;;;5017143;28;20076;-52
2023/04/01 02:38:30;;;;;;;6.18;3.80;;;9.40;99.90;;;;;;5035855;28;20076;-46
2023/04/01 02:40:59;;;;;;;2.95;2.20;;;9.30;99.90;;;;;;5037160;28;20432;-47
2023/04/01 02:43:25;;;;;;;2.20;1.83;;;9.30;99.90;;;;;;5037159;28;20088;-50
2023/04/01 02:45:50;;;;;;;2.67;1.60;;;9.30;99.90;;;;;;5036462;28;20171;-43
2023/04/01 02:48:16;;;;;;;2.47;1.63;;;9.30;99.90;;;;;;5040996;28;20530;-49
2023/04/01 02:50:42;;;;;;;2.45;1.50;;;9.30;99.90;;;;;;5030054;28;20041;-47
2023/04/01 02:53:07;;;;;;;1.55;1.20;;;9.30;99.90;;;;;;5025551;28;20239;-43
2023/04/01 02:55:33;;;;;;;1.52;1.00;;;9.30;99.90;;;;;;5036938;28;20457;-44
2023/04/01 02:57:59;;;;;;;1.67;1.20;;;9.20;99.90;;;;;;5037176;28;20041;-50
2023/04/01 03:00:26;;;;;;;2.05;1.20;;;9.20;99.90;;;;;;5037041;28;20400;-53
2023/04/01 03:02:52;;;;;;;1.67;1.10;;;9.20;99.90;;;;;;5036011;28;20052;-41
2023/04/01 03:05:19;;;;;;;2.55;0.90;;;9.20;99.90;;;;;;5037240;28;20057;-46
2023/04/01 03:07:45;;;;;;;1.58;1.10;;;9.20;99.90;;;;;;5023142;28;20092;-53
2023/04/01 03:10:11;;;;;;;2.22;1.48;;;9.20;99.90;;;;;;5018735;28;20053;-50
2023/04/01 03:12:36;;;;;;;3.53;1.60;;;9.10;99.90;;;;;;5012698;28;20065;-48
2023/04/01 03:15:02;;;;;;;3.10;2.13;;;9.10;99.90;;;;;;5029046;28;20075;-50
2023/04/01 03:17:28;;;;;;;4.70;2.22;;;9.20;99.90;;;;;;5022127;28;20064;-40
2023/04/01 03:19:54;;;;;;;6.10;2.70;;;9.10;99.90;;;;;;5036410;28;20551;-49
2023/04/01 03:22:20;;;;;;;4.47;3.03;;;9.10;99.90;;;;;;5014065;28;20057;-50
2023/04/01 03:24:48;;;;;;;6.07;4.32;;;9.10;99.90;;;;;;5028781;28;20057;-51
2023/04/01 03:27:14;;;;;;;7.05;4.30;;;9.10;99.90;;;;;;5014392;28;20087;-44
2023/04/01 03:29:40;;;;;;;6.82;4.93;;;9.10;99.90;;;;;;5017289;28;20519;-56
2023/04/01 03:32:05;;;;;;;6.85;5.03;;;9.10;99.90;;;;;;5029476;28;20081;-54
2023/04/01 03:34:31;;;;;;;6.25;4.95;;;9.20;99.90;;;;;;5029728;28;21174;-50
2023/04/01 03:36:57;;;;;;;6.88;4.20;;;9.20;99.90;;;;;;5035949;28;20128;-48
2023/04/01 03:39:23;;;;;;;7.60;4.55;;;9.10;99.90;;;;;;5023442;28;20038;-41
2023/04/01 03:41:49;;;;;;;6.03;4.40;;;9.10;99.90;;;;;;5029149;28;20048;-49
2023/04/01 03:44:15;;;;;;;7.93;5.03;;;9.10;99.90;;;;;;5029566;28;20045;-46
2023/04/01 03:46:41;;;;;;;9.68;5.32;;;9.10;99.90;;;;;;5033169;28;20746;-49
2023/04/01 03:49:11;;;;;;;6.80;4.95;;;9.10;99.90;;;;;;5018830;28;20120;-50
2023/04/01 03:51:38;;;;;;;7.93;5.70;;;9.10;99.90;;;;;;5026985;28;20049;-48
2023/04/01 03:54:04;;;;;;;9.48;5.65;;;9.10;99.90;;;;;;5035798;28;20330;-48
2023/04/01 03:56:30;;;;;;;8.57;6.10;;;9.10;99.90;;;;;;5029369;28;20656;-47
2023/04/01 03:58:56;;;;;;;9.18;5.78;;;9.20;99.90;;;;;;5028240;28;20132;-50
2023/04/01 04:01:22;;;;;;;10.40;5.47;;;9.10;99.90;;;;;;5035172;28;20561;-49
2023/04/01 04:03:49;;;;;;;8.82;5.20;;;9.10;99.90;;;;;;5023710;28;20080;-49
2023/04/01 04:06:15;;;;;;;8.10;5.20;;;9.10;99.90;;;;;;5017291;28;20122;-52
2023/04/01 04:08:41;;;;;;;8.32;5.75;;;9.10;99.90;;;;;;5036062;28;20084;-51
2023/04/01 04:11:07;;;;;;;11.93;6.47;;;9.10;99.90;;;;;;5036407;28;20202;-51
2023/04/01 04:13:33;;;;;;;13.90;7.13;;;9.10;99.90;;;;;;5036377;28;20407;-43
2023/04/01 04:15:59;;;;;;;10.10;6.18;;;9.10;99.90;;;;;;5022294;28;20061;-50
2023/04/01 04:18:24;;;;;;;11.88;7.38;;;9.10;99.90;;;;;;5004703;28;20152;-49
2023/04/01 04:20:50;;;;;;;16.40;8.32;;;9.10;99.90;;;;;;5035570;28;20140;-48
2023/04/01 04:23:17;;;;;;;13.07;7.07;;;9.20;99.90;;;;;;5016886;28;20048;-52
2023/04/01 04:25:58;;;;;;;9.55;6.05;;;9.10;99.90;;;;;;5021953;28;20554;-43
2023/04/01 04:28:25;;;;;;;7.78;5.85;;;9.10;99.90;;;;;;5034981;28;20045;-48
2023/04/01 04:30:51;;;;;;;9.30;6.47;;;9.10;99.90;;;;;;5026670;28;20116;-48
2023/04/01 04:33:17;;;;;;;12.32;6.95;;;9.20;99.90;;;;;;5017647;28;20049;-52
2023/04/01 04:35:42;;;;;;;13.02;7.35;;;9.10;99.90;;;;;;5014017;28;20083;-48
2023/04/01 04:38:08;;;;;;;12.88;8.35;;;9.10;99.90;;;;;;5033189;28;20146;-45
2023/04/01 04:40:36;;;;;;;20.20;10.27;;;9.20;99.90;;;;;;5024125;28;20048;-47
2023/04/01 04:43:03;;;;;;;21.85;10.75;;;9.20;99.90;;;;;;5031941;28;20048;-51
2023/04/01 04:45:28;;;;;;;20.40;11.65;;;9.20;99.90;;;;;;5024307;28;20045;-43
2023/04/01 04:47:54;;;;;;;17.40;10.25;;;9.20;99.90;;;;;;5034787;28;20336;-46
2023/04/01 04:50:20;;;;;;;18.23;10.38;;;9.10;99.90;;;;;;5035275;28;20187;-52
2023/04/01 04:52:45;;;;;;;18.35;10.82;;;9.20;99.90;;;;;;5036954;28;20162;-51
2023/04/01 04:55:11;;;;;;;20.30;12.00;;;9.20;99.90;;;;;;5023319;28;20049;-49
2023/04/01 04:57:36;;;;;;;25.55;14.10;;;9.20;99.90;;;;;;5021634;28;20053;-50
2023/04/01 05:00:03;;;;;;;23.88;13.60;;;9.20;99.90;;;;;;5035403;28;20041;-48
2023/04/01 05:02:29;;;;;;;26.33;14.38;;;9.20;99.90;;;;;;5014675;28;20115;-50
2023/04/01 05:04:55;;;;;;;26.15;14.13;;;9.20;99.90;;;;;;5015362;28;20041;-44
2023/04/01 05:07:20;;;;;;;23.30;14.75;;;9.20;99.90;;;;;;5014275;28;20084;-43
2023/04/01 05:09:46;;;;;;;21.55;14.32;;;9.20;99.90;;;;;;5023532;28;20411;-53
2023/04/01 05:12:12;;;;;;;29.65;17.10;;;9.20;99.90;;;;;;5034699;28;20057;-52
2023/04/01 05:14:39;;;;;;;26.55;16.83;;;9.20;99.90;;;;;;5035019;28;20053;-44
2023/04/01 05:17:08;;;;;;;27.80;17.70;;;9.20;99.90;;;;;;5020895;28;20141;-51
2023/04/01 05:19:33;;;;;;;27.80;16.67;;;9.20;99.90;;;;;;5026190;28;20103;-44
2023/04/01 05:21:59;;;;;;;29.90;18.15;;;9.20;99.90;;;;;;5028554;28;20045;-51
2023/04/01 05:24:24;;;;;;;33.22;18.80;;;9.20;99.90;;;;;;5024064;28;20555;-45
2023/04/01 05:26:50;;;;;;;29.50;17.25;;;9.20;99.90;;;;;;5013210;28;20057;-49
2023/04/01 05:29:16;;;;;;;30.08;17.65;;;9.20;99.90;;;;;;5016616;28;20083;-44
2023/04/01 05:31:41;;;;;;;30.63;17.73;;;9.30;99.90;;;;;;5019590;28;20037;-45
2023/04/01 05:34:07;;;;;;;30.55;17.60;;;9.30;99.90;;;;;;5009403;28;20420;-54
2023/04/01 05:36:34;;;;;;;25.10;14.85;;;9.30;99.90;;;;;;5042094;22;20052;-47
2023/04/01 05:38:59;;;;;;;33.30;18.30;;;9.30;99.90;;;;;;5054407;28;20209;-49
2023/04/01 05:41:25;;;;;;;48.70;18.90;;;9.40;99.90;;;;;;5053185;28;20052;-47
2023/04/01 05:43:51;;;;;;;29.92;16.70;;;9.40;99.90;;;;;;5036253;28;20091;-44
2023/04/01 05:46:16;;;;;;;129.63;23.77;;;9.30;99.90;;;;;;5053812;28;20126;-48
2023/04/01 05:48:42;;;;;;;60.03;19.20;;;9.30;99.90;;;;;;5039715;28;20052;-51
2023/04/01 05:51:13;;;;;;;77.47;19.23;;;9.40;99.90;;;;;;5063428;28;20040;-46
2023/04/01 05:53:39;;;;;;;28.05;15.98;;;9.40;99.90;;;;;;5078839;28;20052;-50
2023/04/01 05:56:05;;;;;;;57.38;18.48;;;9.40;99.90;;;;;;5076027;28;20052;-52
2023/04/01 05:58:31;;;;;;;83.65;19.98;;;9.40;99.90;;;;;;5058837;28;20455;-51
2023/04/01 06:01:05;;;;;;;31.55;17.52;;;9.40;99.90;;;;;;5069208;28;20128;-41
2023/04/01 06:03:30;;;;;;;27.08;16.35;;;9.40;99.90;;;;;;5044913;28;20052;-44
2023/04/01 06:05:56;;;;;;;24.00;15.18;;;9.40;99.90;;;;;;5049142;28;20052;-51
2023/04/01 06:08:22;;;;;;;24.30;15.32;;;9.40;99.90;;;;;;5047459;28;20048;-49
2023/04/01 06:11:14;;;;;;;26.77;15.85;;;9.40;99.90;;;;;;5049869;28;20489;-51
2023/04/01 06:14:00;;;;;;;27.23;18.05;;;9.40;99.90;;;;;;5049640;28;20053;-57
2023/04/01 06:16:40;;;;;;;31.08;16.67;;;9.40;99.90;;;;;;5065702;28;20059;-50
2023/04/01 06:19:22;;;;;;;28.65;16.85;;;9.40;99.90;;;;;;5076059;28;20052;-47
2023/04/01 06:22:17;;;;;;;28.65;17.15;;;9.40;99.90;;;;;;5048317;28;20383;-48
2023/04/01 06:24:52;;;;;;;30.02;16.77;;;9.40;99.90;;;;;;5051098;28;20127;-49
2023/04/01 06:27:47;;;;;;;31.02;16.33;;;9.50;99.90;;;;;;5042616;28;20187;-50
2023/04/01 06:30:38;;;;;;;29.85;16.98;;;9.40;99.90;;;;;;5045664;28;20544;-44
2023/04/01 06:33:14;;;;;;;32.65;16.60;;;9.40;99.90;;;;;;5037143;28;20049;-48
2023/04/01 06:36:04;;;;;;;30.27;16.15;;;9.40;99.90;;;;;;5043819;28;20135;-56
2023/04/01 06:38:42;;;;;;;29.85;16.42;;;9.50;99.90;;;;;;5056351;28;20765;-51
2023/04/01 06:41:23;;;;;;;27.40;15.48;;;9.50;99.90;;;;;;5056185;28;20051;-52
2023/04/01 06:44:05;;;;;;;24.73;13.60;;;9.50;99.90;;;;;;5054908;28;20079;-47
2023/04/01 06:46:43;;;;;;;22.15;13.00;;;9.50;99.90;;;;;;5056739;28;20236;-42
2023/04/01 06:49:46;;;;;;;24.45;13.32;;;9.50;99.90;;;;;;5056713;28;20088;-45
2023/04/01 06:52:26;;;;;;;25.03;13.27;;;9.50;99.90;;;;;;5056027;28;20159;-47
2023/04/01 06:55:12;;;;;;;27.90;13.15;;;9.60;99.90;;;;;;5057942;28;20796;-51
2023/04/01 06:57:58;;;;;;;25.83;14.27;;;9.60;99.90;;;;;;5059163;28;20576;-49
2023/04/01 07:00:23;;;;;;;22.35;12.27;;;9.60;99.90;;;;;;5058125;28;20125;-51
2023/04/01 07:03:07;;;;;;;22.38;12.63;;;9.70;99.90;;;;;;5055576;28;20388;-51
2023/04/01 07:05:35;;;;;;;20.58;12.10;;;9.70;99.90;;;;;;5056163;28;20079;-44
2023/04/01 07:08:05;;;;;;;20.83;9.75;;;9.70;99.90;;;;;;5057902;28;20062;-51
2023/04/01 07:11:10;;;;;;;16.65;9.32;;;9.70;99.90;;;;;;5058208;28;20393;-48
2023/04/01 07:13:50;;;;;;;11.43;6.50;;;9.80;99.90;;;;;;5057408;28;20048;-54
2023/04/01 07:16:38;;;;;;;10.48;5.65;;;9.90;99.90;;;;;;5055970;28;20059;-52
2023/04/01 07:19:25;;;;;;;5.82;4.10;;;9.90;99.90;;;;;;5058359;28;20045;-45
2023/04/01 07:21:56;;;;;;;4.85;3.72;;;9.90;99.90;;;;;;5056548;28;20044;-54
2023/04/01 07:24:29;;;;;;;4.85;3.65;;;9.90;99.90;;;;;;5055749;28;20052;-48
2023/04/01 07:26:57;;;;;;;5.18;3.78;;;9.90;99.90;;;;;;5039202;28;20135;-52
2023/04/01 07:29:23;;;;;;;6.00;4.70;;;10.00;99.90;;;;;;5039014;28;20170;-48
2023/04/01 07:32:07;;;;;;;5.32;4.57;;;10.00;99.90;;;;;;5069013;28;20055;-42
2023/04/01 07:35:08;;;;;;;7.53;6.20;;;10.00;99.90;;;;;;5056911;28;20056;-51
2023/04/01 07:37:52;;;;;;;7.20;6.03;;;10.10;99.90;;;;;;5047680;28;20161;-42
2023/04/01 07:40:50;;;;;;;8.73;5.65;;;10.20;99.90;;;;;;5062973;28;20618;-50
2023/04/01 07:43:22;;;;;;;7.60;6.40;;;10.30;99.90;;;;;;5058343;28;20056;-51
2023/04/01 07:46:06;;;;;;;9.27;6.30;;;10.40;99.90;;;;;;5050269;28;20052;-58
2023/04/01 07:48:55;;;;;;;10.40;8.65;;;10.40;99.90;;;;;;5057336;28;20059;-52
2023/04/01 07:51:46;;;;;;;11.50;9.23;;;10.50;99.90;;;;;;5061746;28;20040;-45
2023/04/01 07:54:26;;;;;;;14.55;9.82;;;10.50;99.90;;;;;;5075445;28;20056;-52
2023/04/01 07:56:55;;;;;;;13.35;10.10;;;10.60;99.90;;;;;;5050148;28;20040;-53
2023/04/01 07:59:51;;;;;;;16.08;13.02;;;10.60;99.90;;;;;;5038446;28;20662;-50
2023/04/01 08:02:43;;;;;;;15.38;11.82;;;10.60;99.90;;;;;;5056340;28;20040;-58
2023/04/01 08:05:32;;;;;;;14.45;12.18;;;10.70;99.90;;;;;;4960051;28;20999;-46
2023/04/01 08:08:28;;;;;;;15.07;12.48;;;10.70;99.90;;;;;;4938545;28;20595;-45
2023/04/01 08:11:02;;;;;;;17.25;14.07;;;10.80;99.90;;;;;;4951139;28;20561;-52
2023/04/01 08:13:38;;;;;;;14.88;13.23;;;10.70;99.90;;;;;;4953158;28;20038;-50
2023/04/01 08:16:20;;;;;;;15.80;13.88;;;10.80;99.90;;;;;;4963880;28;20062;-51
2023/04/01 08:19:02;;;;;;;17.67;15.77;;;11.00;99.90;;;;;;4953971;28;20047;-52
2023/04/01 08:21:38;;;;;;;16.60;14.82;;;11.00;99.90;;;;;;4953004;28;20050;-45
2023/04/01 08:24:33;;;;;;;17.13;14.63;;;11.10;99.90;;;;;;4953447;28;20078;-53
2023/04/01 08:27:03;;;;;;;17.80;15.88;;;11.20;99.90;;;;;;4953883;28;20043;-47
2023/04/01 08:30:03;;;;;;;17.48;15.57;;;11.20;99.90;;;;;;4954905;28;20118;-49
2023/04/01 08:32:35;;;;;;;16.13;14.52;;;11.30;99.90;;;;;;4936140;28;20051;-49
2023/04/01 08:35:15;;;;;;;16.70;14.93;;;11.30;99.90;;;;;;4951913;28;20046;-50
2023/04/01 08:37:43;;;;;;;16.83;15.10;;;11.30;99.90;;;;;;4952623;28;20082;-52
2023/04/01 08:40:15;;;;;;;18.33;15.10;;;11.30;99.90;;;;;;4936829;28;20054;-43
2023/04/01 08:42:58;;;;;;;17.40;15.65;;;11.30;99.90;;;;;;5020809;28;20122;-55
2023/04/01 08:46:03;;;;;;;15.90;13.68;;;11.30;99.90;;;;;;5053131;28;20045;-48
2023/04/01 08:48:38;;;;;;;18.30;15.85;;;11.30;99.90;;;;;;4953915;28;20050;-55
2023/04/01 08:51:15;;;;;;;18.85;16.83;;;11.30;99.90;;;;;;4954119;28;20054;-47
2023/04/01 08:53:52;;;;;;;16.85;15.05;;;11.20;99.90;;;;;;4939258;28;20797;-51
2023/04/01 08:56:23;;;;;;;17.60;15.80;;;11.20;99.90;;;;;;4952977;28;20292;-48
2023/04/01 08:59:16;;;;;;;18.10;15.82;;;11.20;99.90;;;;;;4941284;28;20382;-52
2023/04/01 09:02:13;;;;;;;16.73;14.95;;;11.10;99.90;;;;;;4943556;28;20046;-50
2023/04/01 09:04:50;;;;;;;17.05;14.20;;;11.10;99.90;;;;;;4951112;28;20433;-44
2023/04/01 09:07:23;;;;;;;18.17;16.08;;;11.00;99.90;;;;;;4946192;28;20049;-54
2023/04/01 09:10:06;;;;;;;20.50;16.13;;;11.00;99.90;;;;;;4960119;28;20062;-50
2023/04/01 09:12:35;;;;;;;16.92;14.77;;;10.90;99.90;;;;;;4953073;28;20178;-48
2023/04/01 09:15:37;;;;;;;17.13;15.27;;;10.80;99.90;;;;;;4936528;28;20634;-48
2023/04/01 09:18:20;;;;;;;20.17;16.05;;;10.70;99.90;;;;;;4852530;29;20591;-50
2023/04/01 09:21:01;;;;;;;19.77;16.13;;;10.70;99.90;;;;;;4853197;29;20053;-47
2023/04/01 09:23:59;;;;;;;21.65;17.92;;;10.60;99.90;;;;;;4937299;28;20058;-47
2023/04/01 09:26:51;;;;;;;22.02;16.83;;;10.60;99.90;;;;;;4945876;28;20065;-48
2023/04/01 09:29:24;;;;;;;22.08;17.15;;;10.50;99.90;;;;;;4949372;28;20549;-48
2023/04/01 09:32:02;;;;;;;22.35;18.42;;;10.50;99.90;;;;;;4947587;28;20059;-48
2023/04/01 09:34:53;;;;;;;22.08;18.33;;;10.40;99.90;;;;;;4946650;28;20419;-47
2023/04/01 09:37:35;;;;;;;24.38;18.73;;;10.40;99.90;;;;;;4948234;28;20055;-48
2023/04/01 09:40:33;;;;;;;22.58;18.42;;;10.40;99.90;;;;;;4941409;28;20113;-53
2023/04/01 09:43:20;;;;;;;22.38;17.80;;;10.40;99.90;;;;;;4952398;28;20162;-51
2023/04/01 09:45:52;;;;;;;24.75;19.23;;;10.40;99.90;;;;;;4934257;28;20763;-50
2023/04/01 09:48:47;;;;;;;24.30;18.87;;;10.50;99.90;;;;;;4936533;28;20061;-46
2023/04/01 09:51:16;;;;;;;24.92;18.77;;;10.50;99.90;;;;;;4962478;28;20130;-46
2023/04/01 09:54:09;;;;;;;24.48;19.40;;;10.60;99.90;;;;;;5053996;28;20461;-46
2023/04/01 09:56:41;;;;;;;21.38;17.23;;;10.60;99.90;;;;;;5035708;28;20053;-52
2023/04/01 09:59:50;;;;;;;21.52;17.55;;;10.70;99.90;;;;;;5053964;28;20557;-56
2023/04/01 10:03:01;;;;;;;22.48;17.85;;;10.70;99.90;;;;;;5068190;28;20067;-51
2023/04/01 10:05:54;;;;;;;19.48;15.70;;;10.90;99.90;;;;;;5074158;28;20075;-55
2023/04/01 10:08:41;;;;;;;21.08;16.52;;;10.90;99.90;;;;;;5056532;28;20489;-43
2023/04/01 10:11:38;;;;;;;18.35;14.77;;;11.00;99.90;;;;;;5070056;28;20083;-52
2023/04/01 10:14:36;;;;;;;18.92;14.95;;;11.00;99.90;;;;;;5070408;28;20514;-48
2023/04/01 10:17:25;;;;;;;17.65;13.35;;;11.00;99.90;;;;;;4943870;28;20657;-48
2023/04/01 10:20:35;;;;;;;14.57;13.07;;;10.90;99.90;;;;;;4955056;28;20058;-54
2023/04/01 10:23:16;;;;;;;14.40;11.63;;;10.60;99.90;;;;;;4860402;29;20147;-53
2023/04/01 10:26:00;;;;;;;14.60;11.00;;;10.70;99.90;;;;;;4875850;29;20203;-51
2023/04/01 10:28:48;;;;;;;11.90;9.77;;;10.50;99.90;;;;;;4875712;29;20431;-49
2023/04/01 10:31:22;;;;;;;11.65;8.95;;;10.50;99.90;;;;;;4850987;29;20068;-50
2023/04/01 10:34:23;;;;;;;12.70;10.30;;;10.50;99.90;;;;;;4845112;29;20065;-53
2023/04/01 10:36:55;;;;;;;10.73;9.23;;;10.40;99.90;;;;;;4810336;29;20058;-43
2023/04/01 10:39:58;;;;;;;11.95;9.38;;;10.40;99.90;;;;;;4794348;29;20073;-53
2023/04/01 10:43:06;;;;;;;11.25;8.20;;;10.40;99.90;;;;;;4810719;29;20146;-49
2023/04/01 10:45:50;;;;;;;10.07;7.78;;;10.40;99.90;;;;;;4813031;29;20110;-48
2023/04/01 10:48:50;;;;;;;10.82;8.60;;;10.50;99.90;;;;;;4821228;29;20066;-49
2023/04/01 10:51:16;;;;;;;9.77;6.97;;;10.60;99.90;;;;;;4815495;29;20085;-52
2023/04/01 10:54:15;;;;;;;9.73;7.72;;;10.60;99.90;;;;;;4849138;29;20178;-54
2023/04/01 10:56:56;;;;;;;10.77;7.70;;;10.60;99.90;;;;;;4910241;29;20166;-52
2023/04/01 10:59:40;;;;;;;9.93;7.65;;;10.50;99.90;;;;;;4898155;28;20062;-57
2023/04/01 11:02:37;;;;;;;10.02;7.32;;;10.50;99.90;;;;;;4954860;28;20058;-55
2023/04/01 11:05:49;;;;;;;8.50;7.55;;;10.50;99.90;;;;;;4954808;28;20059;-45
2023/04/01 11:08:41;;;;;;;8.15;6.30;;;10.50;99.90;;;;;;4973367;28;20149;-49
2023/04/01 11:11:28;;;;;;;7.88;7.07;;;10.50;99.90;;;;;;5018348;28;20506;-50
2023/04/01 11:14:34;;;;;;;11.10;8.00;;;10.50;99.90;;;;;;5056403;28;20071;-41
2023/04/01 11:17:35;;;;;;;8.90;6.93;;;10.40;99.90;;;;;;5056082;28;20052;-41
2023/04/01 11:20:06;;;;;;;8.65;7.00;;;10.40;99.90;;;;;;5056543;28;20056;-45
2023/04/01 11:22:44;;;;;;;7.53;6.78;;;10.40;99.90;;;;;;5058324;28;20067;-50
2023/04/01 11:25:38;;;;;;;9.45;6.97;;;10.40;99.90;;;;;;5041228;28;20292;-54
2023/04/01 11:28:27;;;;;;;7.50;6.75;;;10.50;99.90;;;;;;5055780;28;20044;-44
2023/04/01 11:31:10;;;;;;;8.35;6.85;;;10.50;99.90;;;;;;5025353;28;20055;-50
2023/04/01 11:34:16;;;;;;;8.93;6.97;;;10.50;99.90;;;;;;5057190;28;20051;-42
2023/04/01 11:36:51;;;;;;;9.45;7.47;;;10.40;99.90;;;;;;4953888;28;20050;-51
2023/04/01 11:39:50;;;;;;;9.60;7.25;;;10.50;99.90;;;;;;4937775;28;20096;-53
2023/04/01 11:42:45;;;;;;;8.73;6.57;;;10.60;99.90;;;;;;4954725;28;20055;-42
2023/04/01 11:45:25;;;;;;;8.63;6.75;;;10.60;99.90;;;;;;4954713;28;20433;-54
2023/04/01 11:48:09;;;;;;;9.13;7.20;;;10.60;99.90;;;;;;4955337;28;20077;-43
2023/04/01 11:51:02;;;;;;;7.00;6.20;;;10.60;99.90;;;;;;4956026;28;20069;-52
2023/04/01 11:54:01;;;;;;;6.75;6.15;;;10.70;99.90;;;;;;4960928;28;20062;-54
2023/04/01 11:56:51;;;;;;;6.43;5.57;;;10.70;99.90;;;;;;4955677;28;20058;-49
2023/04/01 11:59:40;;;;;;;5.55;5.05;;;10.60;99.90;;;;;;4956628;28;20090;-52
2023/04/01 12:02:28;;;;;;;5.38;4.88;;;10.70;99.90;;;;;;4956611;28;20058;-46
2023/04/01 12:04:56;;;;;;;7.03;5.47;;;10.60;99.90;;;;;;4961724;28;20086;-52
2023/04/01 12:08:14;;;;;;;5.93;5.38;;;10.60;99.90;;;;;;4972018;28;20050;-51
2023/04/01 12:11:03;;;;;;;6.07;5.10;;;10.60;99.90;;;;;;4875527;29;20068;-59
2023/04/01 12:13:42;;;;;;;8.52;5.68;;;10.70;99.90;;;;;;4986168;28;20057;-48
2023/04/01 12:16:19;;;;;;;6.40;5.22;;;10.60;99.90;;;;;;4982784;28;20050;-49
2023/04/01 12:19:10;;;;;;;6.57;4.75;;;10.60;99.90;;;;;;4975184;28;20061;-54
2023/04/01 12:21:46;;;;;;;5.95;4.65;;;10.50;99.90;;;;;;4992901;28;20054;-46
2023/04/01 12:24:30;;;;;;;7.28;5.28;;;10.60;99.90;;;;;;4968298;28;20041;-52
2023/04/01 12:27:09;;;;;;;5.45;4.38;;;10.60;99.90;;;;;;4992172;28;20058;-49
2023/04/01 12:30:02;;;;;;;4.90;4.40;;;10.60;99.90;;;;;;4992353;28;20580;-52
2023/04/01 12:32:38;;;;;;;5.43;4.93;;;10.60;99.90;;;;;;4983752;28;20046;-47
2023/04/01 12:35:19;;;;;;;5.32;4.82;;;10.70;99.90;;;;;;4971176;28;20801;-51
2023/04/01 12:37:48;;;;;;;4.70;4.30;;;10.70;99.90;;;;;;4991475;28;20060;-44
2023/04/01 12:40:21;;;;;;;4.60;4.20;;;10.60;99.90;;;;;;4972041;28;20062;-48
2023/04/01 12:42:49;;;;;;;5.05;4.47;;;10.50;99.90;;;;;;4958449;28;20050;-59
2023/04/01 12:45:32;;;;;;;5.05;4.15;;;10.50;99.90;;;;;;4982749;28;20054;-45
2023/04/01 12:48:32;;;;;;;5.15;4.65;;;10.50;99.90;;;;;;5044538;28;20804;-43
2023/04/01 12:51:04;;;;;;;4.82;4.25;;;10.50;99.90;;;;;;5070835;28;20131;-43
2023/04/01 12:53:48;;;;;;;4.35;3.95;;;10.40;99.90;;;;;;5050215;28;20496;-50
2023/04/01 12:56:32;;;;;;;5.25;4.57;;;10.40;99.90;;;;;;5074573;28;20044;-54
2023/04/01 12:59:16;;;;;;;;;;;10.40;99.90;;;;;;5074009;28;20046;-45
2023/04/01 13:02:12;;;;;;;4.45;4.03;;;10.50;99.90;;;;;;5048514;28;19924;-44
2023/04/01 13:04:52;;;;;;;6.38;4.43;;;10.40;99.90;;;;;;4959443;28;20065;-51
2023/04/01 13:07:51;;;;;;;4.50;3.90;;;10.40;99.90;;;;;;4948359;28;20058;-47
2023/04/01 13:10:45;;;;;;;4.82;4.13;;;10.50;99.90;;;;;;4952618;28;20098;-57
2023/04/01 13:13:48;;;;;;;4.80;3.90;;;10.50;99.90;;;;;;4935576;28;20094;-45
2023/04/01 13:16:25;;;;;;;4.57;3.78;;;10.60;99.90;;;;;;4960889;28;20401;-52
2023/04/01 13:19:23;;;;;;;4.95;3.95;;;10.60;99.90;;;;;;4960586;28;20287;-42
2023/04/01 13:22:00;;;;;;;5.00;4.50;;;10.60;99.90;;;;;;4876264;29;20476;-51
2023/04/01 13:24:42;;;;;;;4.72;4.25;;;10.70;99.90;;;;;;4860772;29;20470;-42
2023/04/01 13:27:19;;;;;;;4.47;4.07;;;10.70;99.90;;;;;;4866626;29;20541;-46
2023/04/01 13:30:01;;;;;;;4.75;3.97;;;10.70;99.90;;;;;;4895820;29;20060;-50
2023/04/01 13:32:35;;;;;;;5.03;3.95;;;10.60;99.90;;;;;;4865164;29;20063;-43
2023/04/01 13:35:00;;;;;;;;;;;10.60;99.90;;;;;;4873195;29;20220;-44
2023/04/01 13:38:00;;;;;;;5.90;4.30;;;10.60;99.90;;;;;;4876608;29;20744;-44